createdAt,value
2022-12-25T00:01:27.986Z,10.23
2022-12-25T00:03:54.622Z,9.27
2022-12-25T00:06:21.293Z,9.48
2022-12-25T00:08:47.962Z,9.88
2022-12-25T00:11:17.470Z,9.77
2022-12-25T00:13:44.681Z,9.02
2022-12-25T00:16:16.023Z,9.32
2022-12-25T00:18:42.959Z,9.43
2022-12-25T00:21:15.196Z,8.38
2022-12-25T00:23:45.142Z,9.57
2022-12-25T00:26:15.478Z,8.65
2022-12-25T00:28:42.644Z,9.07
2022-12-25T00:31:12.488Z,11.82
2022-12-25T00:33:41.173Z,15.05
2022-12-25T00:36:08.918Z,16.33
2022-12-25T00:38:37.199Z,16.92
2022-12-25T00:41:15.272Z,17.40
2022-12-25T00:43:42.337Z,17.27
2022-12-25T00:46:11.022Z,13.50
2022-12-25T00:48:38.558Z,16.58
2022-12-25T00:51:08.544Z,15.10
2022-12-25T00:53:35.136Z,12.40
2022-12-25T00:56:04.705Z,13.75
2022-12-25T00:58:33.571Z,12.93
2022-12-25T01:01:00.557Z,12.80
2022-12-25T01:03:27.336Z,9.90
2022-12-25T01:06:00.207Z,9.13
2022-12-25T01:08:27.958Z,6.60
2022-12-25T01:11:00.219Z,7.70
2022-12-25T01:13:27.607Z,7.22
2022-12-25T01:15:54.709Z,7.90
2022-12-25T01:18:23.052Z,8.50
2022-12-25T01:20:49.685Z,8.27
2022-12-25T01:23:17.145Z,9.27
2022-12-25T01:25:43.806Z,9.70
2022-12-25T01:28:10.316Z,10.40
2022-12-25T01:30:36.810Z,11.13
2022-12-25T01:33:03.491Z,10.40
2022-12-25T01:35:30.107Z,10.65
2022-12-25T01:37:56.827Z,6.60
2022-12-25T01:40:23.510Z,6.43
2022-12-25T01:42:50.172Z,6.97
2022-12-25T01:45:43.831Z,8.07
2022-12-25T01:48:17.142Z,7.30
2022-12-25T01:50:47.623Z,6.72
2022-12-25T01:53:14.435Z,8.27
2022-12-25T01:55:44.321Z,8.88
2022-12-25T01:58:10.927Z,8.77
2022-12-25T02:00:37.498Z,9.70
2022-12-25T02:03:04.928Z,9.23
2022-12-25T02:05:33.883Z,10.35
2022-12-25T02:08:08.560Z,12.35
2022-12-25T02:10:35.141Z,16.17
2022-12-25T02:13:02.348Z,13.77
2022-12-25T02:15:40.484Z,15.48
2022-12-25T02:18:14.897Z,16.88
2022-12-25T02:20:50.852Z,17.70
2022-12-25T02:23:38.473Z,14.68
2022-12-25T02:26:30.811Z,13.23
2022-12-25T02:29:05.197Z,16.10
2022-12-25T02:31:31.836Z,11.65
2022-12-25T02:34:16.821Z,10.23
2022-12-25T02:36:53.901Z,8.95
2022-12-25T02:40:00.741Z,10.35
2022-12-25T02:42:57.811Z,10.20
2022-12-25T02:45:57.853Z,10.30
2022-12-25T02:48:49.128Z,10.07
2022-12-25T02:51:37.937Z,10.57
2022-12-25T02:54:28.645Z,10.10
2022-12-25T02:57:17.040Z,8.95
2022-12-25T03:00:05.979Z,9.90
2022-12-25T03:02:52.578Z,9.80
2022-12-25T03:05:41.509Z,10.40
2022-12-25T03:08:13.958Z,9.40
2022-12-25T03:11:03.661Z,13.45
2022-12-25T03:13:36.796Z,14.45
2022-12-25T03:16:22.916Z,16.65
2022-12-25T03:18:49.576Z,16.75
2022-12-25T03:21:34.840Z,14.32
2022-12-25T03:24:20.677Z,14.70
2022-12-25T03:26:56.656Z,15.05
2022-12-25T03:29:49.427Z,14.55
2022-12-25T03:32:22.710Z,14.18
2022-12-25T03:35:25.819Z,13.00
2022-12-25T03:38:35.640Z,13.38
2022-12-25T03:41:35.869Z,13.80
2022-12-25T03:44:35.020Z,14.68
2022-12-25T03:47:26.801Z,14.20
2022-12-25T03:50:25.796Z,13.40
2022-12-25T03:53:13.321Z,11.48
2022-12-25T03:55:59.787Z,10.98
2022-12-25T03:58:45.981Z,12.27
2022-12-25T04:01:32.565Z,12.32
2022-12-25T04:04:17.581Z,13.43
2022-12-25T04:07:02.727Z,13.35
2022-12-25T04:09:47.941Z,14.60
2022-12-25T04:12:32.797Z,15.25
2022-12-25T04:15:18.221Z,13.10
2022-12-25T04:18:03.218Z,13.98
2022-12-25T04:20:48.547Z,14.55
2022-12-25T04:26:19.384Z,12.65
2022-12-25T04:29:04.721Z,15.15
2022-12-25T04:34:34.962Z,17.02
2022-12-25T04:37:01.524Z,18.20
2022-12-25T04:39:28.043Z,15.52
2022-12-25T04:41:54.594Z,13.77
2022-12-25T04:44:21.171Z,12.85
2022-12-25T04:46:47.683Z,13.27
2022-12-25T04:49:14.181Z,13.20
2022-12-25T04:51:40.735Z,13.85
2022-12-25T04:54:07.312Z,16.23
2022-12-25T04:56:34.471Z,16.85
2022-12-25T04:59:03.025Z,16.75
2022-12-25T05:01:29.884Z,16.42
2022-12-25T05:03:56.676Z,14.20
2022-12-25T05:06:23.322Z,16.85
2022-12-25T05:08:49.930Z,17.05
2022-12-25T05:11:17.069Z,16.48
2022-12-25T05:13:44.373Z,16.50
2022-12-25T05:16:16.926Z,18.23
2022-12-25T05:18:44.191Z,17.77
2022-12-25T05:21:12.424Z,18.70
2022-12-25T05:23:39.366Z,19.00
2022-12-25T05:26:07.265Z,18.70
2022-12-25T05:28:35.265Z,17.60
2022-12-25T05:31:02.228Z,17.85
2022-12-25T05:33:28.838Z,16.23
2022-12-25T05:35:55.336Z,18.10
2022-12-25T05:38:21.876Z,18.73
2022-12-25T05:40:51.716Z,21.42
2022-12-25T05:43:19.649Z,19.15
2022-12-25T05:45:46.328Z,19.10
2022-12-25T05:48:13.041Z,20.23
2022-12-25T05:50:39.692Z,16.38
2022-12-25T05:53:08.820Z,17.38
2022-12-25T05:55:41.070Z,17.00
2022-12-25T05:58:08.422Z,18.17
2022-12-25T06:00:35.392Z,19.38
2022-12-25T06:03:02.074Z,19.17
2022-12-25T06:05:28.775Z,18.88
2022-12-25T06:07:55.524Z,17.02
2022-12-25T06:10:22.369Z,17.60
2022-12-25T06:12:48.932Z,17.38
2022-12-25T06:15:15.576Z,18.52
2022-12-25T06:17:42.124Z,16.63
2022-12-25T06:20:09.120Z,17.60
2022-12-25T06:22:35.718Z,17.08
2022-12-25T06:25:02.627Z,16.92
2022-12-25T06:27:29.154Z,16.52
2022-12-25T06:29:55.792Z,16.05
2022-12-25T06:32:22.398Z,17.05
2022-12-25T06:34:49.068Z,15.77
2022-12-25T06:37:15.651Z,17.30
2022-12-25T06:39:42.258Z,18.80
2022-12-25T06:42:09.166Z,16.73
2022-12-25T06:44:35.732Z,15.48
2022-12-25T06:47:02.354Z,18.70
2022-12-25T06:49:28.990Z,19.05
2022-12-25T06:51:55.948Z,19.33
2022-12-25T06:54:22.616Z,13.20
2022-12-25T06:56:49.892Z,16.13
2022-12-25T06:59:16.530Z,14.85
2022-12-25T07:01:49.464Z,15.48
2022-12-25T07:04:21.305Z,14.48
2022-12-25T07:06:47.867Z,16.25
2022-12-25T07:09:14.598Z,14.20
2022-12-25T07:11:41.274Z,20.33
2022-12-25T07:14:07.959Z,29.60
2022-12-25T07:16:34.709Z,31.23
2022-12-25T07:19:01.436Z,18.88
2022-12-25T07:21:27.997Z,14.43
2022-12-25T07:23:54.566Z,15.75
2022-12-25T07:26:21.285Z,16.10
2022-12-25T07:28:47.880Z,15.00
2022-12-25T07:31:16.514Z,16.55
2022-12-25T07:33:43.954Z,16.15
2022-12-25T07:36:12.962Z,15.88
2022-12-25T07:38:41.042Z,16.17
2022-12-25T07:41:10.240Z,15.55
2022-12-25T07:43:37.121Z,16.20
2022-12-25T07:46:05.170Z,16.75
2022-12-25T07:48:33.945Z,15.50
2022-12-25T07:51:03.542Z,15.95
2022-12-25T07:53:30.221Z,16.90
2022-12-25T07:56:05.467Z,16.08
2022-12-25T07:58:35.321Z,17.17
2022-12-25T08:01:07.619Z,16.50
2022-12-25T08:03:35.058Z,19.63
2022-12-25T08:06:08.201Z,16.60
2022-12-25T08:08:36.227Z,16.83
2022-12-25T08:11:03.230Z,17.10
2022-12-25T08:13:34.443Z,17.25
2022-12-25T08:16:03.035Z,17.75
2022-12-25T08:18:32.856Z,15.77
2022-12-25T08:21:05.011Z,18.05
2022-12-25T08:23:34.416Z,15.93
2022-12-25T08:26:05.476Z,17.00
2022-12-25T08:28:36.070Z,15.40
2022-12-25T08:31:27.240Z,17.83
2022-12-25T08:33:56.629Z,15.95
2022-12-25T08:36:23.653Z,19.23
2022-12-25T08:38:55.709Z,18.00
2022-12-25T08:43:51.795Z,16.15
2022-12-25T08:46:18.574Z,18.13
2022-12-25T08:48:46.345Z,17.67
2022-12-25T08:51:16.404Z,17.40
2022-12-25T08:53:44.225Z,17.40
2022-12-25T08:56:11.369Z,16.63
2022-12-25T08:58:38.427Z,19.42
2022-12-25T09:01:05.842Z,17.83
2022-12-25T09:03:32.718Z,16.95
2022-12-25T09:06:04.512Z,17.77
2022-12-25T09:08:31.315Z,18.70
2022-12-25T09:11:10.256Z,12.98
2022-12-25T09:13:37.966Z,15.70
2022-12-25T09:16:09.841Z,16.48
2022-12-25T09:18:37.121Z,15.82
2022-12-25T09:21:06.388Z,17.10
2022-12-25T09:23:35.454Z,15.98
2022-12-25T09:26:04.504Z,13.23
2022-12-25T09:28:32.138Z,13.75
2022-12-25T09:30:59.375Z,12.32
2022-12-25T09:33:26.062Z,12.50
2022-12-25T09:35:54.657Z,12.20
2022-12-25T09:38:21.533Z,13.20
2022-12-25T09:40:48.247Z,10.95
2022-12-25T09:43:21.345Z,12.20
2022-12-25T09:45:48.069Z,14.63
2022-12-25T09:48:16.522Z,14.20
2022-12-25T09:51:00.114Z,13.85
2022-12-25T09:53:38.664Z,12.00
2022-12-25T09:56:16.714Z,11.95
2022-12-25T09:58:43.908Z,12.60
2022-12-25T10:01:39.258Z,13.80
2022-12-25T10:04:12.195Z,14.90
2022-12-25T10:06:38.784Z,12.95
2022-12-25T10:09:20.541Z,16.33
2022-12-25T10:12:00.451Z,14.27
2022-12-25T10:14:35.478Z,14.13
2022-12-25T10:17:09.293Z,12.52
2022-12-25T10:19:41.606Z,14.07
2022-12-25T10:22:27.806Z,12.13
2022-12-25T10:24:58.071Z,11.82
2022-12-25T10:27:42.919Z,13.80
2022-12-25T10:30:16.002Z,11.80
2022-12-25T10:32:44.534Z,12.15
2022-12-25T10:35:16.886Z,12.93
2022-12-25T10:37:46.509Z,14.30
2022-12-25T10:40:25.058Z,12.43
2022-12-25T10:43:50.066Z,14.02
2022-12-25T10:46:17.993Z,15.68
2022-12-25T10:48:56.171Z,14.55
2022-12-25T10:51:33.563Z,15.27
2022-12-25T10:54:02.788Z,16.02
2022-12-25T10:56:29.987Z,14.40
2022-12-25T10:59:07.388Z,14.73
2022-12-25T11:01:34.259Z,12.57
2022-12-25T11:04:01.164Z,13.80
2022-12-25T11:06:31.588Z,14.30
2022-12-25T11:09:00.790Z,16.23
2022-12-25T11:11:28.926Z,16.60
2022-12-25T11:14:01.901Z,16.38
2022-12-25T11:16:40.346Z,15.57
2022-12-25T11:19:33.220Z,16.27
2022-12-25T11:22:02.608Z,16.60
2022-12-25T11:24:31.703Z,17.27
2022-12-25T11:27:01.521Z,18.98
2022-12-25T11:30:04.287Z,17.38
2022-12-25T11:33:06.867Z,17.58
2022-12-25T11:35:46.757Z,42.33
2022-12-25T11:38:13.800Z,31.48
2022-12-25T11:40:49.219Z,32.13
2022-12-25T11:43:23.732Z,28.90
2022-12-25T11:46:09.231Z,25.35
2022-12-25T11:48:50.102Z,34.08
2022-12-25T11:51:17.977Z,17.13
2022-12-25T11:53:52.933Z,18.27
2022-12-25T11:59:27.803Z,17.13
2022-12-25T12:02:11.131Z,16.17
2022-12-25T12:04:46.579Z,16.52
2022-12-25T12:07:29.443Z,16.33
2022-12-25T12:10:30.336Z,17.38
2022-12-25T12:13:15.640Z,14.05
2022-12-25T12:18:33.009Z,9.88
2022-12-25T12:21:30.358Z,11.63
2022-12-25T12:24:26.131Z,15.18
2022-12-25T12:27:02.656Z,12.95
2022-12-25T12:29:39.305Z,16.23
2022-12-25T12:32:06.659Z,15.32
2022-12-25T12:34:42.774Z,17.20
2022-12-25T12:37:40.694Z,15.48
2022-12-25T12:40:22.100Z,15.55
2022-12-25T12:42:51.123Z,13.45
2022-12-25T12:45:24.013Z,17.40
2022-12-25T12:47:52.608Z,15.23
2022-12-25T12:50:42.612Z,15.75
2022-12-25T12:58:33.731Z,16.02
2022-12-25T14:41:53.851Z,14.82
2022-12-25T14:44:36.115Z,16.77
2022-12-25T14:47:20.914Z,15.02
2022-12-25T14:49:48.229Z,15.10
2022-12-25T14:52:42.305Z,16.35
2022-12-25T14:55:20.251Z,16.17
2022-12-25T14:57:56.092Z,14.98
2022-12-25T15:00:26.710Z,17.13
2022-12-25T15:02:56.021Z,16.30
2022-12-25T15:05:33.623Z,15.65
2022-12-25T15:08:11.131Z,14.82
2022-12-25T15:13:26.601Z,11.68
2022-12-25T15:16:14.627Z,11.77
2022-12-25T15:18:44.056Z,14.25
2022-12-25T15:21:16.853Z,13.05
2022-12-25T15:23:43.555Z,13.05
2022-12-25T15:26:13.676Z,13.77
2022-12-25T15:28:40.240Z,14.75
2022-12-25T15:31:30.173Z,15.68
2022-12-25T15:34:00.430Z,25.17
2022-12-25T15:36:27.650Z,18.48
2022-12-25T15:38:54.748Z,16.27
2022-12-25T15:41:46.335Z,16.42
2022-12-25T15:44:13.062Z,17.50
2022-12-25T15:46:39.739Z,17.65
2022-12-25T15:49:06.356Z,15.60
2022-12-25T15:51:33.329Z,16.40
2022-12-25T15:53:59.889Z,14.95
2022-12-25T15:56:27.039Z,14.20
2022-12-25T15:58:53.605Z,15.02
2022-12-25T16:01:21.369Z,12.77
2022-12-25T16:03:50.140Z,12.68
2022-12-25T16:06:18.330Z,11.80
2022-12-25T16:08:45.678Z,11.80
2022-12-25T16:11:12.536Z,10.10
2022-12-25T16:13:39.122Z,7.95
2022-12-25T16:16:07.002Z,8.60
2022-12-25T16:18:33.821Z,8.85
2022-12-25T16:21:00.573Z,10.48
2022-12-25T16:23:27.393Z,8.38
2022-12-25T16:25:54.036Z,8.80
2022-12-25T16:28:20.561Z,9.88
2022-12-25T16:30:47.255Z,8.43
2022-12-25T16:33:13.927Z,7.60
2022-12-25T16:35:40.507Z,7.90
2022-12-25T16:38:07.061Z,8.13
2022-12-25T16:40:34.201Z,7.03
2022-12-25T16:43:00.801Z,7.20
2022-12-25T16:45:27.482Z,6.50
2022-12-25T16:47:54.130Z,6.75
2022-12-25T16:50:20.711Z,6.88
2022-12-25T16:52:47.412Z,7.13
2022-12-25T16:55:14.042Z,7.70
2022-12-25T16:57:40.637Z,7.05
2022-12-25T17:00:08.730Z,7.78
2022-12-25T17:02:35.451Z,10.43
2022-12-25T17:05:02.410Z,9.63
2022-12-25T17:07:28.957Z,8.77
2022-12-25T17:09:57.178Z,10.10
2022-12-25T17:12:23.779Z,10.07
2022-12-25T17:14:50.316Z,9.52
2022-12-25T17:17:16.858Z,8.30
2022-12-25T17:19:43.448Z,7.07
2022-12-25T17:22:10.035Z,6.70
2022-12-25T17:24:37.445Z,7.35
2022-12-25T17:27:04.408Z,7.07
2022-12-25T17:29:32.064Z,6.28
2022-12-25T17:31:58.799Z,5.82
2022-12-25T17:34:25.451Z,6.47
2022-12-25T17:36:53.519Z,10.60
2022-12-25T17:39:20.056Z,13.48
2022-12-25T17:41:49.444Z,13.30
2022-12-25T17:44:16.609Z,9.63
2022-12-25T17:46:43.683Z,9.05
2022-12-25T17:49:15.672Z,7.88
2022-12-25T17:51:42.362Z,8.35
2022-12-25T17:54:09.641Z,6.43
2022-12-25T17:56:36.977Z,8.18
2022-12-25T17:59:09.742Z,5.75
2022-12-25T18:01:38.850Z,5.57
2022-12-25T18:04:06.739Z,4.65
2022-12-25T18:06:36.156Z,4.28
2022-12-25T18:09:02.843Z,4.43
2022-12-25T18:11:32.882Z,5.30
2022-12-25T18:14:02.584Z,4.00
2022-12-25T18:18:59.649Z,4.63
2022-12-25T18:21:26.657Z,4.78
2022-12-25T18:23:53.250Z,5.15
2022-12-25T18:26:20.930Z,5.40
2022-12-25T18:28:48.894Z,5.05
2022-12-25T18:31:21.508Z,5.55
2022-12-25T18:33:49.125Z,5.07
2022-12-25T18:36:21.070Z,5.28
2022-12-25T18:38:48.968Z,5.60
2022-12-25T18:41:15.980Z,5.20
2022-12-25T18:43:53.548Z,5.88
2022-12-25T18:46:24.970Z,5.68
2022-12-25T18:48:52.916Z,5.43
2022-12-25T18:51:19.587Z,4.80
2022-12-25T18:53:46.303Z,5.22
2022-12-25T18:56:18.294Z,5.25
2022-12-25T18:58:46.800Z,7.47
2022-12-25T19:01:24.130Z,7.25
2022-12-25T19:03:53.146Z,5.65
2022-12-25T19:06:33.952Z,6.90
2022-12-25T19:09:00.517Z,6.32
2022-12-25T19:11:47.101Z,4.38
2022-12-25T19:14:14.208Z,4.07
2022-12-25T19:16:41.147Z,4.60
2022-12-25T19:19:07.803Z,4.32
2022-12-25T19:21:34.337Z,4.32
2022-12-25T19:24:00.929Z,4.38
2022-12-25T19:26:28.036Z,4.47
2022-12-25T19:29:00.946Z,4.20
2022-12-25T19:31:27.567Z,4.05
2022-12-25T19:33:54.192Z,4.28
2022-12-25T19:36:20.832Z,3.90
2022-12-25T19:38:47.343Z,4.55
2022-12-25T19:41:17.031Z,4.30
2022-12-25T19:43:45.687Z,4.25
2022-12-25T19:46:18.847Z,4.75
2022-12-25T19:48:48.817Z,4.32
2022-12-25T19:51:22.058Z,4.60
2022-12-25T19:53:48.753Z,4.60
2022-12-25T19:56:15.716Z,4.10
2022-12-25T19:58:42.499Z,3.90
2022-12-25T20:01:19.699Z,3.67
2022-12-25T20:03:47.520Z,4.00
2022-12-25T20:06:21.926Z,4.72
2022-12-25T20:08:52.710Z,4.30
2022-12-25T20:11:20.636Z,4.47
2022-12-25T20:13:47.367Z,3.83
2022-12-25T20:16:13.962Z,3.88
2022-12-25T20:18:40.738Z,4.05
2022-12-25T20:21:14.261Z,4.57
2022-12-25T20:23:42.840Z,3.92
2022-12-25T20:26:10.969Z,4.80
2022-12-25T20:28:37.975Z,4.45
2022-12-25T20:31:29.624Z,4.40
2022-12-25T20:33:58.059Z,4.75
2022-12-25T20:36:26.571Z,5.28
2022-12-25T20:38:55.019Z,4.78
2022-12-25T20:41:27.354Z,4.38
2022-12-25T20:43:54.871Z,4.30
2022-12-25T20:46:22.483Z,4.65
2022-12-25T20:48:49.224Z,4.28
2022-12-25T20:51:18.695Z,7.65
2022-12-25T20:53:46.165Z,4.22
2022-12-25T20:56:14.804Z,6.93
2022-12-25T20:58:41.945Z,6.32
2022-12-25T21:01:12.173Z,5.35
2022-12-25T21:03:41.667Z,5.03
2022-12-25T21:06:09.000Z,5.00
2022-12-25T21:08:36.607Z,4.53
2022-12-25T21:11:04.299Z,4.63
2022-12-25T21:13:34.431Z,4.18
2022-12-25T21:16:05.213Z,4.22
2022-12-25T21:18:31.799Z,3.83
2022-12-25T21:20:59.514Z,4.05
2022-12-25T21:23:28.944Z,4.38
2022-12-25T21:25:55.510Z,4.10
2022-12-25T21:28:23.133Z,3.95
2022-12-25T21:30:49.857Z,4.35
2022-12-25T21:33:34.781Z,4.70
2022-12-25T21:36:11.872Z,4.97
2022-12-25T21:38:39.049Z,4.63
2022-12-25T21:41:08.804Z,4.47
2022-12-25T21:43:36.766Z,4.40
2022-12-25T21:46:09.076Z,4.15
2022-12-25T21:48:37.280Z,4.53
2022-12-25T21:51:23.861Z,5.07
2022-12-25T21:53:51.039Z,4.75
2022-12-25T21:56:18.051Z,4.97
2022-12-25T21:58:44.716Z,5.10
2022-12-25T22:01:11.917Z,5.10
2022-12-25T22:03:38.648Z,4.57
2022-12-25T22:06:24.000Z,4.88
2022-12-25T22:11:35.860Z,5.20
2022-12-25T22:17:27.020Z,4.70
2022-12-25T22:19:53.762Z,4.72
2022-12-25T22:22:23.103Z,4.63
2022-12-25T22:24:54.878Z,5.53
2022-12-25T22:27:22.090Z,5.32
2022-12-25T22:29:48.672Z,4.93
2022-12-25T22:32:20.439Z,5.63
2022-12-25T22:34:47.553Z,5.43
2022-12-25T22:37:17.608Z,5.18
2022-12-25T22:39:45.224Z,5.22
2022-12-25T22:42:12.355Z,4.93
2022-12-25T22:44:39.046Z,5.13
2022-12-25T22:47:05.568Z,4.78
2022-12-25T22:49:32.095Z,5.80
2022-12-25T22:51:58.610Z,5.18
2022-12-25T22:54:28.450Z,4.93
2022-12-25T22:56:55.222Z,4.85
2022-12-25T22:59:22.971Z,5.20
2022-12-25T23:01:50.824Z,5.88
2022-12-25T23:04:17.724Z,5.50
2022-12-25T23:06:45.107Z,5.60
2022-12-25T23:09:17.542Z,4.88
2022-12-25T23:11:48.818Z,5.15
2022-12-25T23:14:34.011Z,5.25
2022-12-25T23:17:00.547Z,5.40
2022-12-25T23:19:45.949Z,4.75
2022-12-25T23:22:32.183Z,5.50
2022-12-25T23:25:17.831Z,5.20
2022-12-25T23:27:45.580Z,5.35
2022-12-25T23:30:15.342Z,5.40
2022-12-25T23:32:43.407Z,5.57
2022-12-25T23:35:11.124Z,5.30
2022-12-25T23:37:37.682Z,5.93
2022-12-25T23:40:04.795Z,5.97
2022-12-25T23:42:31.289Z,5.60
2022-12-25T23:44:57.832Z,5.57
2022-12-25T23:47:25.310Z,6.38
2022-12-25T23:49:51.829Z,5.50
2022-12-25T23:52:18.358Z,5.18
2022-12-25T23:54:45.090Z,5.93
2022-12-25T23:57:11.629Z,5.50
2022-12-25T23:59:38.238Z,5.20
